aviador You're here:

LFRL Decoded Metar

LANVEDOC in FRANCE
Report Time2017-08-22 11:00:00
UTC Time2017-08-22 11:13:05
Flight Rules vfr VFR
Wind160° at 11 kt
W.Decomp.*RWY 23: 4.3 kt HW 10.1 kt LCW
W.Rank160° ranks 26
Current wind is above 160° avg. (7.8)
Visibility9999 m
Phenomena:N/A
Clouds:N/A
Expected CloudBase > 4,000 ft AGL from Temp-Dew spread
CeilingNone
Temp26°C (ISA +12)
Dew Point16°C (54% RH)
AAT24.0°C
QNH1014 hPa
Density Alt1,811 ft
Elevation269 ft
Report Wrong Elevation
Raw Report
METAR LFRL 221100Z AUTO 16011KT 130V200 CAVOK 26/16 Q1014 NOSIG=

Extra information for LFRL:More info

Metar Taf Metar & Taf Last 4 Metars F.Rules Stats Wind Profile Meteogram Temp Stats Airport Information Weather charts Add Link Nearby VenuesMetar ALERT Operation Metar Decoded Social comments